Time;durP1;ratioP1;P1;durP2;ratioP2;P2;SDS_P1;SDS_P2;PMS_P1;PMS_P2;Temp;Humidity;BMP_temperature;BMP_pressure;BME280_temperature;BME280_humidity;BME280_pressure;Samples;Min_cycle;Max_cycle;Signal;HPM_P1;HPM_P2
2021/08/26 00:00:04;;;;;;;10.38;7.68;;;15.80;91.70;;;;;;5114083;28;20024;-48
2021/08/26 00:07:58;;;;;;;7.78;6.00;;;15.80;91.50;;;;;;5114285;28;20074;-48
2021/08/26 00:10:24;;;;;;;8.38;6.03;;;15.80;91.40;;;;;;5113906;28;20027;-51
2021/08/26 00:12:51;;;;;;;5.85;5.30;;;15.90;91.30;;;;;;5114255;28;20104;-46
2021/08/26 00:15:17;;;;;;;6.30;5.55;;;15.80;91.20;;;;;;5114162;28;20372;-48
2021/08/26 00:17:44;;;;;;;7.93;5.55;;;15.80;91.60;;;;;;5113683;28;20019;-46
2021/08/26 00:20:09;;;;;;;8.95;6.50;;;15.80;91.70;;;;;;5113854;28;20024;-47
2021/08/26 00:22:35;;;;;;;9.13;5.90;;;15.80;91.70;;;;;;5113738;28;20030;-47
2021/08/26 00:25:03;;;;;;;9.18;6.05;;;15.80;92.30;;;;;;5113418;28;20027;-45
2021/08/26 00:27:29;;;;;;;7.65;6.00;;;15.70;92.30;;;;;;5113586;27;20023;-46
2021/08/26 00:29:55;;;;;;;7.47;5.40;;;15.70;92.60;;;;;;5113652;28;20031;-45
2021/08/26 00:32:20;;;;;;;7.18;5.60;;;15.70;92.50;;;;;;5113581;28;20038;-46
2021/08/26 00:34:46;;;;;;;8.45;5.85;;;15.70;92.60;;;;;;5112281;28;20106;-48
2021/08/26 00:37:12;;;;;;;7.80;5.45;;;15.60;93.00;;;;;;5113465;28;20070;-47
2021/08/26 00:39:37;;;;;;;7.35;5.57;;;15.60;93.00;;;;;;5113836;28;20020;-45
2021/08/26 00:42:06;;;;;;;8.68;5.47;;;15.60;93.30;;;;;;5112062;28;20028;-46
2021/08/26 00:44:32;;;;;;;6.68;5.43;;;15.70;93.40;;;;;;5113545;28;20039;-47
2021/08/26 00:46:58;;;;;;;6.43;4.18;;;15.70;93.40;;;;;;5113553;28;20464;-47
2021/08/26 00:49:30;;;;;;;5.78;4.13;;;15.80;93.50;;;;;;5112059;28;20493;-47
2021/08/26 00:51:56;;;;;;;4.55;3.28;;;15.70;93.20;;;;;;5112972;28;20043;-46
2021/08/26 00:54:22;;;;;;;3.50;2.70;;;15.80;93.00;;;;;;5113380;28;20548;-45
2021/08/26 00:56:48;;;;;;;7.35;3.25;;;15.70;92.90;;;;;;5113183;28;20047;-48
2021/08/26 00:59:14;;;;;;;3.22;2.10;;;15.80;92.70;;;;;;5113013;28;20051;-47
2021/08/26 01:01:52;;;;;;;3.33;2.10;;;15.80;92.40;;;;;;5112789;28;20023;-46
2021/08/26 01:04:47;;;;;;;4.07;3.05;;;15.70;91.30;;;;;;5113038;28;20026;-46
2021/08/26 01:07:25;;;;;;;4.00;2.63;;;15.60;91.50;;;;;;5113206;28;20031;-49
2021/08/26 01:09:57;;;;;;;3.10;2.20;;;15.70;91.30;;;;;;5112945;28;20020;-46
2021/08/26 01:12:24;;;;;;;5.07;2.25;;;15.50;89.70;;;;;;5111546;28;20024;-49
2021/08/26 01:14:55;;;;;;;2.83;2.05;;;15.40;89.10;;;;;;5112770;28;20043;-46
2021/08/26 01:17:24;;;;;;;5.60;3.03;;;15.40;89.10;;;;;;5113289;28;20467;-47
2021/08/26 01:19:51;;;;;;;5.05;2.28;;;15.40;89.30;;;;;;5112148;28;20405;-47
2021/08/26 01:22:18;;;;;;;2.85;2.05;;;15.40;89.50;;;;;;5112872;28;20024;-51
2021/08/26 01:24:49;;;;;;;7.68;2.83;;;15.40;89.60;;;;;;5113071;28;20040;-48
2021/08/26 01:27:16;;;;;;;6.70;2.60;;;15.50;89.70;;;;;;5113023;28;20019;-47
2021/08/26 01:29:42;;;;;;;4.25;2.92;;;15.50;89.90;;;;;;5112549;28;20027;-47
2021/08/26 01:32:08;;;;;;;7.57;3.22;;;15.60;89.50;;;;;;5112565;28;20024;-47
2021/08/26 01:34:34;;;;;;;5.18;2.53;;;15.60;89.40;;;;;;5112708;28;20122;-48
2021/08/26 01:37:00;;;;;;;6.65;2.78;;;15.60;89.20;;;;;;5113366;28;20133;-47
2021/08/26 01:39:26;;;;;;;5.28;2.80;;;15.70;89.20;;;;;;5113338;28;20068;-52
2021/08/26 01:41:54;;;;;;;7.35;2.85;;;15.60;89.20;;;;;;5112884;28;20460;-51
2021/08/26 01:44:24;;;;;;;6.18;2.17;;;15.60;89.60;;;;;;5112892;28;20383;-49
2021/08/26 01:46:54;;;;;;;9.30;3.10;;;15.60;89.20;;;;;;5112893;28;20092;-48
2021/08/26 01:49:20;;;;;;;;;;;15.60;89.00;;;;;;5113652;28;20027;-47
2021/08/26 01:51:45;;;;;;;4.68;2.63;;;15.60;88.90;;;;;;5112544;28;20260;-50
2021/08/26 01:54:11;;;;;;;6.65;2.63;;;15.60;88.90;;;;;;5113103;28;20120;-47
2021/08/26 01:56:38;;;;;;;5.95;2.90;;;15.60;88.60;;;;;;5112800;28;20077;-47
2021/08/26 01:59:03;;;;;;;7.88;2.67;;;15.50;88.40;;;;;;5113847;28;20081;-49
2021/08/26 02:01:29;;;;;;;16.75;4.47;;;15.50;88.90;;;;;;5115203;28;20031;-52
2021/08/26 02:03:55;;;;;;;6.30;2.90;;;15.60;88.60;;;;;;5116492;28;20027;-47
2021/08/26 02:06:21;;;;;;;9.82;3.40;;;15.60;88.20;;;;;;5116395;28;20104;-46
2021/08/26 02:08:47;;;;;;;14.05;3.22;;;15.60;88.10;;;;;;5117009;28;20043;-47
2021/08/26 02:11:12;;;;;;;11.77;3.50;;;15.50;88.30;;;;;;5116568;28;20031;-50
2021/08/26 02:13:38;;;;;;;5.82;3.45;;;15.50;88.30;;;;;;5116550;27;20111;-50
2021/08/26 02:16:05;;;;;;;6.18;2.92;;;15.50;88.30;;;;;;5116502;28;20049;-48
2021/08/26 02:18:30;;;;;;;19.73;3.85;;;15.70;88.10;;;;;;5116409;28;20019;-49
2021/08/26 02:20:56;;;;;;;7.38;2.88;;;15.50;88.30;;;;;;5116382;28;20026;-46
2021/08/26 02:23:22;;;;;;;7.97;2.65;;;15.50;88.60;;;;;;5116142;28;20020;-47
2021/08/26 02:25:48;;;;;;;6.03;3.50;;;15.50;88.60;;;;;;5116030;28;20020;-48
2021/08/26 02:28:13;;;;;;;6.43;2.95;;;15.50;88.40;;;;;;5114664;28;20115;-47
2021/08/26 02:30:39;;;;;;;9.00;3.85;;;15.60;87.80;;;;;;5115861;28;20490;-46
2021/08/26 02:33:05;;;;;;;10.55;3.83;;;15.60;88.00;;;;;;5116006;28;20034;-47
2021/08/26 02:35:30;;;;;;;10.90;3.63;;;15.50;88.50;;;;;;5116105;28;20503;-50
2021/08/26 02:37:56;;;;;;;5.93;3.60;;;15.50;87.80;;;;;;5116011;27;20142;-47
2021/08/26 02:40:22;;;;;;;11.45;3.85;;;15.50;87.10;;;;;;5116018;28;20046;-47
2021/08/26 02:42:47;;;;;;;10.05;3.47;;;15.50;86.80;;;;;;5115932;28;20035;-48
2021/08/26 02:45:13;;;;;;;10.93;3.50;;;15.50;86.60;;;;;;5115915;28;20108;-48
2021/08/26 02:47:38;;;;;;;10.52;3.38;;;15.50;86.50;;;;;;5115576;28;20020;-48
2021/08/26 02:50:05;;;;;;;9.68;3.20;;;15.60;86.00;;;;;;5114980;28;20019;-46
2021/08/26 02:52:30;;;;;;;9.07;3.20;;;15.50;85.80;;;;;;5115437;28;20092;-47
2021/08/26 02:54:56;;;;;;;10.32;3.53;;;15.60;86.60;;;;;;5115459;28;20095;-47
2021/08/26 02:57:21;;;;;;;8.85;3.33;;;15.50;86.20;;;;;;5115405;28;20418;-47
2021/08/26 02:59:47;;;;;;;10.23;3.08;;;15.50;86.60;;;;;;5115664;28;20046;-48
2021/08/26 03:02:12;;;;;;;9.93;3.40;;;15.50;87.10;;;;;;5115441;28;20023;-47
2021/08/26 03:04:38;;;;;;;25.27;4.10;;;15.40;86.90;;;;;;5115241;28;20023;-48
2021/08/26 03:07:04;;;;;;;11.40;3.28;;;15.60;86.40;;;;;;5115971;28;20413;-50
2021/08/26 03:09:30;;;;;;;6.63;3.20;;;15.50;86.20;;;;;;5115155;28;20101;-47
2021/08/26 03:11:55;;;;;;;11.50;3.75;;;15.40;85.90;;;;;;5115088;28;20031;-51
2021/08/26 03:14:21;;;;;;;10.50;3.30;;;15.40;85.80;;;;;;5115115;28;20069;-46
2021/08/26 03:16:46;;;;;;;11.32;3.75;;;15.40;85.60;;;;;;5115019;28;20027;-46
2021/08/26 03:19:12;;;;;;;18.25;3.33;;;15.40;85.30;;;;;;5114926;28;20027;-46
2021/08/26 03:21:38;;;;;;;7.85;3.47;;;15.50;85.00;;;;;;5115205;28;20360;-47
2021/08/26 03:24:05;;;;;;;11.35;3.35;;;15.40;85.20;;;;;;5115098;28;20031;-47
2021/08/26 03:26:30;;;;;;;9.30;3.53;;;15.50;85.30;;;;;;5115087;28;20166;-50
2021/08/26 03:28:56;;;;;;;12.75;3.85;;;15.30;86.20;;;;;;5114820;28;20090;-47
2021/08/26 03:31:22;;;;;;;14.98;4.68;;;15.30;85.90;;;;;;5114659;28;20073;-46
2021/08/26 03:33:47;;;;;;;15.35;3.42;;;15.30;85.70;;;;;;5114667;28;20020;-47
2021/08/26 03:36:13;;;;;;;10.57;4.50;;;15.30;85.80;;;;;;5114939;28;20024;-48
2021/08/26 03:38:40;;;;;;;17.58;5.25;;;15.30;86.00;;;;;;5114806;28;20020;-48
2021/08/26 03:41:06;;;;;;;7.90;3.45;;;15.30;86.20;;;;;;5114524;28;20015;-47
2021/08/26 03:43:31;;;;;;;14.75;3.88;;;15.30;85.50;;;;;;5114728;28;20455;-46
2021/08/26 03:45:57;;;;;;;10.45;3.35;;;15.30;85.40;;;;;;5114927;28;20051;-47
2021/08/26 03:48:22;;;;;;;10.52;4.00;;;15.30;85.40;;;;;;5114235;28;20069;-49
2021/08/26 03:50:48;;;;;;;18.08;4.10;;;15.20;85.20;;;;;;5114002;28;20130;-47
2021/08/26 03:53:14;;;;;;;12.18;4.10;;;15.20;85.60;;;;;;5114533;28;20038;-48
2021/08/26 03:55:39;;;;;;;11.90;4.00;;;15.00;85.40;;;;;;5114278;28;20031;-46
2021/08/26 03:58:05;;;;;;;14.20;4.13;;;14.90;85.30;;;;;;5114297;28;20090;-47
2021/08/26 04:00:31;;;;;;;15.23;3.33;;;15.00;85.40;;;;;;5114377;28;20024;-47
2021/08/26 04:02:56;;;;;;;10.18;3.95;;;15.10;85.10;;;;;;5114137;28;20026;-50
2021/08/26 04:05:22;;;;;;;8.32;3.60;;;15.10;85.00;;;;;;5114301;28;20023;-46
2021/08/26 04:07:47;;;;;;;14.93;4.82;;;15.10;85.00;;;;;;5114188;28;20364;-47
2021/08/26 04:10:13;;;;;;;10.07;3.58;;;15.10;84.60;;;;;;5113764;28;20050;-46
2021/08/26 04:12:39;;;;;;;12.32;3.97;;;15.20;84.40;;;;;;5113811;28;20352;-47
2021/08/26 04:15:05;;;;;;;18.63;4.53;;;15.10;84.10;;;;;;5113669;28;20030;-48
2021/08/26 04:17:31;;;;;;;14.07;4.80;;;15.30;83.40;;;;;;5113738;28;20047;-47
2021/08/26 04:19:56;;;;;;;11.88;4.07;;;15.20;83.40;;;;;;5113431;28;20102;-47
2021/08/26 04:22:22;;;;;;;15.27;5.28;;;15.10;83.70;;;;;;5113205;28;20055;-46
2021/08/26 04:24:47;;;;;;;11.82;4.30;;;15.00;83.80;;;;;;5113349;28;20042;-48
2021/08/26 04:27:13;;;;;;;13.18;4.55;;;15.00;83.60;;;;;;5112707;28;20037;-46
2021/08/26 04:29:39;;;;;;;16.30;5.50;;;15.10;83.60;;;;;;5113774;28;20102;-47
2021/08/26 04:32:05;;;;;;;9.13;3.75;;;15.20;83.10;;;;;;5113176;28;20443;-47
2021/08/26 04:34:30;;;;;;;15.10;3.65;;;15.10;83.30;;;;;;5111967;28;20027;-50
2021/08/26 04:36:56;;;;;;;10.35;5.18;;;15.10;83.00;;;;;;5113463;28;20030;-46
2021/08/26 04:39:22;;;;;;;14.52;4.28;;;15.10;83.20;;;;;;5113578;28;20463;-46
2021/08/26 04:41:47;;;;;;;16.50;4.00;;;15.20;83.20;;;;;;5113923;28;20414;-48
2021/08/26 04:44:13;;;;;;;19.02;4.82;;;15.10;83.10;;;;;;5112110;28;20027;-47
2021/08/26 04:46:39;;;;;;;8.18;3.97;;;15.10;83.30;;;;;;5113444;28;20051;-47
2021/08/26 04:49:04;;;;;;;16.00;3.72;;;15.10;83.10;;;;;;5112064;28;20024;-46
2021/08/26 04:51:30;;;;;;;11.73;3.88;;;15.10;82.80;;;;;;5111655;28;20075;-46
2021/08/26 04:53:56;;;;;;;11.35;3.88;;;15.00;82.90;;;;;;5113562;28;20031;-46
2021/08/26 04:56:21;;;;;;;14.02;3.65;;;15.00;83.00;;;;;;5113575;28;20024;-47
2021/08/26 04:58:47;;;;;;;17.15;3.95;;;15.10;82.80;;;;;;5113628;28;20020;-46
2021/08/26 05:01:12;;;;;;;9.77;3.40;;;15.10;82.60;;;;;;5113322;28;20019;-46
2021/08/26 05:03:38;;;;;;;8.43;2.58;;;15.10;82.60;;;;;;5113600;28;20019;-46
2021/08/26 05:06:05;;;;;;;8.45;2.83;;;15.20;82.30;;;;;;5113255;28;20035;-47
2021/08/26 05:08:30;;;;;;;14.30;3.50;;;15.10;82.10;;;;;;5113439;28;20383;-47
2021/08/26 05:10:56;;;;;;;11.38;3.00;;;15.20;81.90;;;;;;5113437;28;20020;-46
2021/08/26 05:13:22;;;;;;;22.05;5.90;;;15.10;82.30;;;;;;5113416;28;20140;-48
2021/08/26 05:15:47;;;;;;;14.07;3.60;;;15.20;82.10;;;;;;5113111;28;20379;-47
2021/08/26 05:18:13;;;;;;;12.88;4.13;;;15.10;81.90;;;;;;5113112;28;20533;-47
2021/08/26 05:20:39;;;;;;;10.98;2.88;;;15.10;81.90;;;;;;5113036;28;20024;-49
2021/08/26 05:23:04;;;;;;;16.02;3.80;;;15.20;81.80;;;;;;5112976;28;20031;-47
2021/08/26 05:25:30;;;;;;;15.07;3.80;;;15.20;81.70;;;;;;5112686;28;20536;-48
2021/08/26 05:27:56;;;;;;;11.95;3.80;;;15.30;81.50;;;;;;5112834;28;20030;-47
2021/08/26 05:30:21;;;;;;;11.57;3.85;;;15.20;81.90;;;;;;5113048;28;20027;-46
2021/08/26 05:32:48;;;;;;;16.10;3.90;;;15.30;81.30;;;;;;5111533;28;20459;-47
2021/08/26 05:35:14;;;;;;;13.60;3.72;;;15.40;81.00;;;;;;5116654;28;20111;-46
2021/08/26 05:37:40;;;;;;;11.13;3.78;;;15.30;80.90;;;;;;5116582;28;20027;-48
2021/08/26 05:40:06;;;;;;;14.32;3.22;;;15.40;81.00;;;;;;5116872;28;20486;-50
2021/08/26 05:42:32;;;;;;;16.60;4.55;;;15.50;80.20;;;;;;5116430;27;20066;-46
2021/08/26 05:44:58;;;;;;;12.40;4.72;;;15.50;80.70;;;;;;5116355;28;20023;-45
2021/08/26 05:47:24;;;;;;;9.95;3.88;;;15.40;80.80;;;;;;5116257;28;20481;-46
2021/08/26 05:49:49;;;;;;;20.33;3.85;;;15.60;79.10;;;;;;5097869;28;20448;-47
2021/08/26 05:52:15;;;;;;;13.85;3.88;;;15.70;79.00;;;;;;5115874;28;20149;-46
2021/08/26 05:54:41;;;;;;;13.05;4.13;;;15.60;79.10;;;;;;5116185;28;20115;-48
2021/08/26 05:57:06;;;;;;;15.77;3.15;;;15.50;79.70;;;;;;5116452;28;20030;-48
2021/08/26 05:59:32;;;;;;;10.88;2.83;;;15.50;80.40;;;;;;5116043;28;20030;-46
2021/08/26 06:02:00;;;;;;;15.98;3.20;;;15.50;81.20;;;;;;5114915;28;20028;-49
2021/08/26 06:04:26;;;;;;;13.05;3.88;;;15.40;81.10;;;;;;5116102;28;20032;-46
2021/08/26 06:06:52;;;;;;;13.05;3.20;;;15.40;80.80;;;;;;5114912;28;20032;-48
2021/08/26 06:09:18;;;;;;;12.18;3.10;;;15.30;81.20;;;;;;5114553;28;20043;-47
2021/08/26 06:11:43;;;;;;;10.95;2.90;;;15.40;81.60;;;;;;5116012;28;20080;-46
2021/08/26 06:14:10;;;;;;;9.82;4.65;;;15.50;81.70;;;;;;5116327;28;20375;-47
2021/08/26 06:16:35;;;;;;;13.48;4.35;;;15.60;80.50;;;;;;5115631;28;20032;-48
2021/08/26 06:19:01;;;;;;;12.68;4.45;;;15.70;80.70;;;;;;5115644;28;20077;-49
2021/08/26 06:21:26;;;;;;;12.80;4.25;;;15.40;80.80;;;;;;5115710;28;20028;-48
2021/08/26 06:23:52;;;;;;;13.10;3.97;;;15.50;81.60;;;;;;5114120;28;20027;-48
2021/08/26 06:26:18;;;;;;;12.55;3.60;;;15.70;81.00;;;;;;5116070;28;20028;-47
2021/08/26 06:28:44;;;;;;;11.35;2.95;;;15.80;80.30;;;;;;5116220;28;20502;-51
2021/08/26 06:31:09;;;;;;;12.60;3.75;;;15.90;79.40;;;;;;5115743;28;20110;-51
2021/08/26 06:33:35;;;;;;;16.45;3.25;;;15.80;79.40;;;;;;5115549;28;20463;-49
2021/08/26 06:36:01;;;;;;;11.40;3.47;;;15.80;79.10;;;;;;5115327;28;20020;-51
2021/08/26 06:38:27;;;;;;;16.40;5.03;;;15.80;79.90;;;;;;5115343;28;20031;-48
2021/08/26 06:40:52;;;;;;;12.70;3.08;;;15.80;79.80;;;;;;5115371;28;20152;-49
2021/08/26 06:43:18;;;;;;;12.32;4.32;;;15.90;79.60;;;;;;5115180;28;20097;-47
2021/08/26 06:45:44;;;;;;;13.60;3.28;;;16.00;79.20;;;;;;5114769;28;20116;-49
2021/08/26 06:48:09;;;;;;;15.68;3.53;;;15.90;79.50;;;;;;5113878;28;20133;-47
2021/08/26 06:50:35;;;;;;;13.80;3.90;;;16.00;79.60;;;;;;5115643;27;20118;-47
2021/08/26 06:53:01;;;;;;;12.75;3.28;;;16.00;79.20;;;;;;5115341;28;20023;-48
2021/08/26 06:55:27;;;;;;;13.10;3.13;;;16.10;79.30;;;;;;5114861;28;20042;-49
2021/08/26 06:57:53;;;;;;;19.00;3.67;;;16.30;77.90;;;;;;5114886;28;20099;-47
2021/08/26 07:00:18;;;;;;;17.42;3.67;;;16.50;77.60;;;;;;5114774;28;20119;-49
2021/08/26 07:02:45;;;;;;;13.77;4.65;;;16.40;78.00;;;;;;5112800;28;20031;-48
2021/08/26 07:05:10;;;;;;;12.43;3.38;;;16.50;77.40;;;;;;5113863;28;20500;-49
2021/08/26 07:07:36;;;;;;;23.35;7.18;;;16.70;76.50;;;;;;5114755;28;20019;-48
2021/08/26 07:10:04;;;;;;;17.60;3.47;;;16.70;76.90;;;;;;5114795;28;20515;-52
2021/08/26 07:12:32;;;;;;;12.00;2.75;;;16.30;77.90;;;;;;5113258;28;20023;-47
2021/08/26 07:14:59;;;;;;;15.85;4.28;;;16.40;78.00;;;;;;5113219;28;20540;-47
2021/08/26 07:17:24;;;;;;;14.60;3.20;;;16.50;77.20;;;;;;5114559;28;20020;-46
2021/08/26 07:19:50;;;;;;;13.32;2.97;;;16.40;77.60;;;;;;5113375;28;20325;-51
2021/08/26 07:22:16;;;;;;;9.90;3.08;;;16.60;77.20;;;;;;5114489;27;20416;-49
2021/08/26 07:24:41;;;;;;;9.50;2.88;;;16.80;76.90;;;;;;5114683;28;20024;-47
2021/08/26 07:27:07;;;;;;;9.80;4.07;;;16.80;76.80;;;;;;5114719;28;20047;-47
2021/08/26 07:29:33;;;;;;;11.82;2.85;;;16.60;77.50;;;;;;5114147;28;20023;-48
2021/08/26 07:31:58;;;;;;;7.93;2.60;;;16.50;77.80;;;;;;5113942;28;20024;-46
2021/08/26 07:34:24;;;;;;;7.55;2.78;;;16.40;77.90;;;;;;5114110;28;20097;-47
2021/08/26 07:36:49;;;;;;;15.75;3.72;;;16.50;78.00;;;;;;5114020;28;20106;-49
2021/08/26 07:39:16;;;;;;;10.77;3.40;;;16.40;78.50;;;;;;5114078;28;20016;-45
2021/08/26 07:41:42;;;;;;;13.18;3.25;;;16.60;78.00;;;;;;5112473;28;20376;-47
2021/08/26 07:44:08;;;;;;;5.93;2.25;;;16.40;77.40;;;;;;5113121;28;20070;-47
2021/08/26 07:46:33;;;;;;;10.18;3.17;;;16.30;77.90;;;;;;5113765;28;20059;-46
2021/08/26 07:48:59;;;;;;;12.00;3.22;;;16.30;78.30;;;;;;5114154;28;20468;-46
2021/08/26 07:51:24;;;;;;;10.60;3.33;;;16.30;78.40;;;;;;5113692;28;20050;-47
2021/08/26 07:53:50;;;;;;;12.68;3.33;;;16.20;78.80;;;;;;5113568;28;20028;-46
2021/08/26 07:56:16;;;;;;;13.52;4.13;;;16.30;79.00;;;;;;5113640;28;20043;-48
2021/08/26 07:58:41;;;;;;;15.32;4.18;;;16.30;77.90;;;;;;5114228;28;20072;-47
2021/08/26 08:01:07;;;;;;;8.10;3.65;;;16.30;78.40;;;;;;5112579;28;20118;-48
2021/08/26 08:03:33;;;;;;;13.10;5.10;;;16.40;78.20;;;;;;5114100;28;20058;-48
2021/08/26 08:06:01;;;;;;;18.77;5.38;;;16.60;77.70;;;;;;5113592;28;20015;-48
2021/08/26 08:08:26;;;;;;;17.80;5.80;;;16.80;76.40;;;;;;5113312;28;20031;-50
2021/08/26 08:10:52;;;;;;;13.05;4.13;;;16.90;75.90;;;;;;5112131;28;20497;-47
2021/08/26 08:13:18;;;;;;;8.57;3.60;;;17.10;76.00;;;;;;5113455;28;20451;-51
2021/08/26 08:15:44;;;;;;;14.85;3.88;;;17.20;76.10;;;;;;5112110;28;20026;-48
2021/08/26 08:18:11;;;;;;;9.65;5.40;;;17.20;76.00;;;;;;5113238;28;20039;-47
2021/08/26 08:20:37;;;;;;;13.73;4.03;;;17.30;75.40;;;;;;5113372;28;20046;-47
2021/08/26 08:23:03;;;;;;;15.43;3.30;;;17.10;76.40;;;;;;5113224;28;20058;-47
2021/08/26 08:25:29;;;;;;;11.10;2.95;;;17.10;76.50;;;;;;5113118;28;20024;-49
2021/08/26 08:27:55;;;;;;;14.63;3.38;;;17.20;75.80;;;;;;5113073;28;20073;-48
2021/08/26 08:30:26;;;;;;;8.30;2.90;;;17.60;75.20;;;;;;5113072;28;20035;-48
2021/08/26 08:32:53;;;;;;;10.45;2.95;;;17.80;74.10;;;;;;5111868;28;20027;-49
2021/08/26 08:35:20;;;;;;;11.43;3.67;;;18.30;72.20;;;;;;5113282;28;20019;-48
2021/08/26 08:37:45;;;;;;;9.32;2.67;;;18.30;72.20;;;;;;5111569;28;20102;-49
2021/08/26 08:40:11;;;;;;;11.43;2.58;;;18.10;73.30;;;;;;5113225;28;20028;-52
2021/08/26 08:42:37;;;;;;;9.70;2.70;;;18.70;70.20;;;;;;5113198;28;20034;-47
2021/08/26 08:45:04;;;;;;;7.93;2.95;;;19.30;68.80;;;;;;5112806;28;20028;-49
2021/08/26 08:47:32;;;;;;;12.27;2.67;;;18.80;69.50;;;;;;5112806;28;20023;-47
2021/08/26 08:50:00;;;;;;;10.98;3.00;;;18.60;69.70;;;;;;5094293;28;20028;-48
2021/08/26 08:52:26;;;;;;;13.30;3.15;;;18.30;70.30;;;;;;5111218;28;20052;-48
2021/08/26 08:54:52;;;;;;;11.30;2.90;;;18.10;71.50;;;;;;5113299;28;20102;-48
2021/08/26 08:57:20;;;;;;;19.25;3.63;;;18.10;70.80;;;;;;5113458;28;20110;-48
2021/08/26 08:59:46;;;;;;;8.85;3.88;;;18.00;71.80;;;;;;5113487;28;20461;-47
2021/08/26 09:02:12;;;;;;;10.13;3.13;;;18.00;72.20;;;;;;5112460;28;20030;-48
2021/08/26 09:04:57;;;;;;;19.92;5.03;;;18.10;72.00;;;;;;5112573;28;20387;-47
2021/08/26 09:07:28;;;;;;;13.05;3.35;;;17.70;73.70;;;;;;5112134;28;20030;-46
2021/08/26 09:09:55;;;;;;;13.07;4.18;;;17.80;72.90;;;;;;5117061;28;20031;-48
2021/08/26 09:12:39;;;;;;;11.52;3.30;;;18.00;72.60;;;;;;5116812;28;20096;-45
2021/08/26 09:15:12;;;;;;;12.38;3.78;;;17.90;73.00;;;;;;5116769;28;20137;-47
2021/08/26 09:17:38;;;;;;;13.25;3.50;;;18.10;72.30;;;;;;5116627;28;20018;-47
2021/08/26 09:20:06;;;;;;;8.20;2.78;;;18.30;71.60;;;;;;5116284;28;20062;-45
2021/08/26 09:22:31;;;;;;;11.43;3.67;;;18.50;70.70;;;;;;5116058;28;20063;-47
2021/08/26 09:24:58;;;;;;;14.15;3.42;;;18.50;70.70;;;;;;5116763;28;20051;-46
2021/08/26 09:27:36;;;;;;;14.05;3.75;;;18.60;70.30;;;;;;5115873;28;20039;-46
2021/08/26 09:30:01;;;;;;;12.05;3.35;;;18.60;71.10;;;;;;5114827;28;20493;-49
2021/08/26 09:32:39;;;;;;;11.10;3.97;;;18.70;70.80;;;;;;5116178;28;20024;-48
2021/08/26 09:35:09;;;;;;;12.55;3.47;;;18.90;69.70;;;;;;5116079;28;20352;-47
2021/08/26 09:37:44;;;;;;;14.40;5.32;;;18.80;69.10;;;;;;5115833;28;20098;-47
2021/08/26 09:40:11;;;;;;;14.60;4.68;;;19.00;69.40;;;;;;5116210;28;20024;-47
2021/08/26 09:42:37;;;;;;;13.50;4.47;;;19.00;69.50;;;;;;5115816;28;20024;-49
2021/08/26 09:45:26;;;;;;;10.18;3.67;;;19.10;69.10;;;;;;5115819;28;20431;-47
2021/08/26 09:48:12;;;;;;;13.13;3.75;;;19.30;68.60;;;;;;5116094;28;20042;-46
2021/08/26 09:50:42;;;;;;;12.23;4.15;;;19.50;67.50;;;;;;5114652;28;20027;-49
2021/08/26 09:53:10;;;;;;;12.55;3.08;;;19.60;66.30;;;;;;5116103;28;20027;-46
2021/08/26 09:55:51;;;;;;;13.75;3.92;;;19.00;67.80;;;;;;5114659;28;20433;-48
2021/08/26 09:58:19;;;;;;;9.57;3.28;;;19.10;67.80;;;;;;5114842;28;20023;-48
2021/08/26 10:00:45;;;;;;;10.73;3.22;;;19.00;67.40;;;;;;5116163;28;20035;-45
2021/08/26 10:03:13;;;;;;;14.40;3.95;;;18.90;68.40;;;;;;5116156;27;20023;-48
2021/08/26 10:05:43;;;;;;;12.60;3.55;;;18.90;68.40;;;;;;5116118;28;20069;-48
2021/08/26 10:08:10;;;;;;;10.13;3.60;;;18.80;68.90;;;;;;5116406;28;20050;-47
2021/08/26 10:10:39;;;;;;;11.30;3.58;;;18.80;68.90;;;;;;5115801;28;20467;-46
2021/08/26 10:13:05;;;;;;;9.93;4.15;;;18.80;68.00;;;;;;5115830;28;20031;-46
2021/08/26 10:15:32;;;;;;;7.18;3.63;;;18.80;68.20;;;;;;5115724;28;20023;-45
2021/08/26 10:17:58;;;;;;;13.52;4.20;;;18.80;69.00;;;;;;5115695;28;20026;-47
2021/08/26 10:20:24;;;;;;;12.05;4.10;;;18.90;68.40;;;;;;5115142;27;20028;-46
2021/08/26 10:22:52;;;;;;;7.03;3.65;;;18.70;69.10;;;;;;5115515;28;20063;-46
2021/08/26 10:25:18;;;;;;;12.05;3.70;;;18.70;69.40;;;;;;5115558;28;20055;-46
2021/08/26 10:27:44;;;;;;;16.42;4.57;;;18.80;68.80;;;;;;5113814;28;20023;-47
2021/08/26 10:30:29;;;;;;;15.73;4.35;;;19.20;67.70;;;;;;5115416;28;20027;-46
2021/08/26 10:33:20;;;;;;;10.43;4.72;;;19.20;67.80;;;;;;5115607;28;20134;-46
2021/08/26 10:35:56;;;;;;;7.70;3.17;;;19.60;65.80;;;;;;5115355;28;20015;-46
2021/08/26 10:38:31;;;;;;;14.10;4.05;;;19.70;65.20;;;;;;5115732;28;20028;-47
2021/08/26 10:40:59;;;;;;;15.63;4.50;;;19.50;65.20;;;;;;5115531;28;20115;-47
2021/08/26 10:43:34;;;;;;;15.07;3.53;;;20.20;63.30;;;;;;5115043;28;20042;-49
2021/08/26 10:46:00;;;;;;;12.05;2.90;;;20.60;62.10;;;;;;5114759;28;20035;-47
2021/08/26 10:48:27;;;;;;;14.18;3.67;;;20.80;60.00;;;;;;5113727;28;20440;-48
2021/08/26 10:51:20;;;;;;;9.60;3.33;;;20.40;61.20;;;;;;5114730;28;20075;-47
2021/08/26 10:53:49;;;;;;;11.65;3.53;;;20.90;60.70;;;;;;5113032;28;20188;-49
2021/08/26 10:56:21;;;;;;;15.27;3.70;;;20.40;61.90;;;;;;5115183;27;20080;-48
2021/08/26 10:58:51;;;;;;;15.38;2.90;;;19.90;63.30;;;;;;5115011;28;20028;-47
2021/08/26 11:01:35;;;;;;;12.57;3.90;;;19.50;64.60;;;;;;5114554;28;20028;-47
2021/08/26 11:04:01;;;;;;;10.90;3.85;;;18.80;68.00;;;;;;5114816;28;20033;-50
2021/08/26 11:06:29;;;;;;;10.75;3.80;;;18.30;69.10;;;;;;5114193;28;20023;-49
2021/08/26 11:09:18;;;;;;;17.55;3.40;;;18.30;69.60;;;;;;5114909;28;20034;-48
2021/08/26 11:11:47;;;;;;;8.65;3.08;;;18.30;69.70;;;;;;5114614;28;20119;-49
2021/08/26 11:14:13;;;;;;;10.50;3.95;;;18.60;68.70;;;;;;5113760;28;20475;-48
2021/08/26 11:16:46;;;;;;;10.32;4.60;;;18.80;68.10;;;;;;5114843;28;20038;-49
2021/08/26 11:19:12;;;;;;;12.00;4.20;;;18.70;68.30;;;;;;5114637;28;20509;-48
2021/08/26 11:21:41;;;;;;;11.70;3.53;;;19.20;67.50;;;;;;5115060;28;20051;-49
2021/08/26 11:24:16;;;;;;;11.40;3.67;;;19.40;65.80;;;;;;5113494;28;20401;-48
2021/08/26 11:26:58;;;;;;;12.00;4.07;;;19.60;65.90;;;;;;5113332;28;20027;-50
2021/08/26 11:29:23;;;;;;;11.10;3.67;;;20.10;63.70;;;;;;5114726;28;20031;-48
2021/08/26 11:31:52;;;;;;;10.35;4.25;;;20.60;61.40;;;;;;5113335;28;20020;-49
2021/08/26 11:34:26;;;;;;;8.88;3.45;;;20.70;61.50;;;;;;5112664;27;20375;-50
2021/08/26 11:37:13;;;;;;;8.02;3.42;;;20.60;61.70;;;;;;5114342;28;20072;-52
2021/08/26 11:40:03;;;;;;;10.80;3.35;;;20.40;62.00;;;;;;5114561;28;20034;-48
2021/08/26 11:42:35;;;;;;;15.95;3.95;;;20.60;61.00;;;;;;5114778;28;20125;-54
2021/08/26 11:45:05;;;;;;;13.75;4.20;;;20.40;61.40;;;;;;5114119;28;20027;-53
2021/08/26 11:47:31;;;;;;;;;;;20.00;63.40;;;;;;5114741;28;20099;-49
2021/08/26 11:50:19;;;;;;;9.00;3.08;;;20.10;62.70;;;;;;5112830;28;19904;-47
2021/08/26 11:52:51;;;;;;;11.32;3.70;;;20.20;63.00;;;;;;5112797;28;20051;-48
2021/08/26 11:55:19;;;;;;;8.88;3.38;;;20.50;61.60;;;;;;5115058;28;20068;-49
2021/08/26 11:57:45;;;;;;;13.73;4.75;;;20.80;60.50;;;;;;5113809;28;20192;-48
2021/08/26 12:00:16;;;;;;;15.65;2.83;;;20.80;60.60;;;;;;5113594;28;20032;-49
2021/08/26 12:02:50;;;;;;;10.05;3.20;;;20.30;61.80;;;;;;5113650;28;20102;-47
2021/08/26 12:05:16;;;;;;;8.32;3.53;;;20.70;60.80;;;;;;5112083;28;20028;-48
2021/08/26 12:07:47;;;;;;;15.75;2.85;;;21.40;58.10;;;;;;5113649;28;20030;-49
2021/08/26 12:10:24;;;;;;;8.38;3.42;;;22.80;54.30;;;;;;5078699;28;20028;-48
2021/08/26 12:12:56;;;;;;;9.98;2.90;;;24.00;51.30;;;;;;5113733;28;20471;-47
2021/08/26 12:15:24;;;;;;;9.65;3.38;;;23.50;50.90;;;;;;5114232;28;20023;-48
2021/08/26 12:17:52;;;;;;;12.10;3.45;;;23.80;50.40;;;;;;5113382;28;20088;-48
2021/08/26 12:20:18;;;;;;;9.77;3.40;;;24.80;48.10;;;;;;5113550;28;20020;-47
2021/08/26 12:22:47;;;;;;;9.57;2.80;;;24.30;47.00;;;;;;5113207;28;20106;-48
2021/08/26 12:25:20;;;;;;;8.07;2.70;;;22.30;49.70;;;;;;5113332;28;20031;-47
2021/08/26 12:27:52;;;;;;;6.50;2.47;;;21.80;52.10;;;;;;5112062;28;20027;-48
2021/08/26 12:30:34;;;;;;;7.53;3.13;;;20.60;55.00;;;;;;5113251;28;20384;-47
2021/08/26 12:33:11;;;;;;;10.45;3.05;;;21.00;55.40;;;;;;5113102;28;20028;-46
2021/08/26 12:36:01;;;;;;;12.30;3.70;;;20.90;56.10;;;;;;5113066;28;20102;-48
2021/08/26 12:38:38;;;;;;;12.13;3.95;;;21.10;57.30;;;;;;5107017;28;20500;-46
2021/08/26 12:41:12;;;;;;;10.23;3.40;;;20.80;58.60;;;;;;5112595;28;20051;-47
2021/08/26 12:43:58;;;;;;;9.13;2.92;;;21.00;58.90;;;;;;5112346;28;20055;-48
2021/08/26 12:46:32;;;;;;;9.13;2.90;;;21.20;58.10;;;;;;5111188;28;20035;-48
2021/08/26 12:49:08;;;;;;;9.70;3.58;;;20.80;58.00;;;;;;5111497;28;20104;-48